Time;durP1;ratioP1;P1;durP2;ratioP2;P2;SDS_P1;SDS_P2;PMS_P1;PMS_P2;Temp;Humidity;BMP_temperature;BMP_pressure;BME280_temperature;BME280_humidity;BME280_pressure;Samples;Min_cycle;Max_cycle;Signal;HPM_P1;HPM_P2
2022/12/18 00:01:19;;;;;;;111.18;39.47;;;;;;;;;;5045881;28;20045;-73
2022/12/18 00:03:46;;;;;;;113.57;41.40;;;;;;;;;;5049318;28;20064;-74
2022/12/18 00:06:13;;;;;;;110.65;40.15;;;;;;;;;;5012785;28;20049;-73
2022/12/18 00:08:40;;;;;;;114.32;39.88;;;;;;;;;;5034006;28;20063;-74
2022/12/18 00:11:07;;;;;;;122.70;42.92;;;;;;;;;;5052620;28;20037;-74
2022/12/18 00:13:33;;;;;;;110.22;41.35;;;;;;;;;;5051098;28;20071;-73
2022/12/18 00:16:03;;;;;;;114.35;40.10;;;;;;;;;;5052920;28;20399;-73
2022/12/18 00:18:29;;;;;;;114.30;42.33;;;;;;;;;;5049511;28;20040;-73
2022/12/18 00:20:58;;;;;;;117.25;41.45;;;;;;;;;;5032788;28;20045;-74
2022/12/18 00:23:25;;;;;;;115.88;41.42;;;;;;;;;;5029374;28;20077;-73
2022/12/18 00:25:51;;;;;;;113.90;43.08;;;;;;;;;;5043371;28;20041;-73
2022/12/18 00:28:17;;;;;;;119.30;42.58;;;;;;;;;;5029790;28;20033;-73
2022/12/18 00:30:43;;;;;;;107.07;40.47;;;;;;;;;;5052655;28;20049;-73
2022/12/18 00:33:09;;;;;;;107.20;40.88;;;;;;;;;;5047544;28;20059;-73
2022/12/18 00:35:35;;;;;;;103.68;38.60;;;;;;;;;;5047002;28;20044;-73
2022/12/18 00:38:01;;;;;;;97.35;40.65;;;;;;;;;;5046916;28;20052;-73
2022/12/18 00:40:27;;;;;;;98.75;39.83;;;;;;;;;;5046532;28;21734;-73
2022/12/18 00:42:56;;;;;;;100.03;39.47;;;;;;;;;;5045337;28;20061;-73
2022/12/18 00:45:26;;;;;;;104.00;40.88;;;;;;;;;;5029533;28;20048;-73
2022/12/18 00:47:52;;;;;;;103.95;39.13;;;;;;;;;;5029189;28;20127;-73
2022/12/18 00:50:19;;;;;;;108.43;40.97;;;;;;;;;;5045079;28;20115;-74
2022/12/18 00:52:45;;;;;;;100.63;41.28;;;;;;;;;;5045845;28;20049;-73
2022/12/18 00:55:11;;;;;;;102.55;39.90;;;;;;;;;;5046531;28;20045;-73
2022/12/18 00:57:37;;;;;;;98.22;39.55;;;;;;;;;;5044011;28;20114;-73
2022/12/18 01:00:04;;;;;;;98.22;39.97;;;;;;;;;;5046942;28;20097;-73
2022/12/18 01:02:30;;;;;;;111.10;42.90;;;;;;;;;;5045526;28;20056;-73
2022/12/18 01:04:56;;;;;;;99.00;40.55;;;;;;;;;;5050793;28;20052;-73
2022/12/18 01:07:22;;;;;;;101.50;38.90;;;;;;;;;;5055329;28;20491;-74
2022/12/18 01:09:48;;;;;;;106.65;39.55;;;;;;;;;;5036528;28;20406;-73
2022/12/18 01:12:15;;;;;;;101.90;41.50;;;;;;;;;;5055882;28;20045;-74
2022/12/18 01:14:41;;;;;;;101.35;39.95;;;;;;;;;;5055730;28;20495;-73
2022/12/18 01:17:07;;;;;;;100.63;38.83;;;;;;;;;;5055045;28;20449;-73
2022/12/18 01:19:33;;;;;;;102.72;39.70;;;;;;;;;;5055579;28;20076;-73
2022/12/18 01:21:59;;;;;;;104.07;40.25;;;;;;;;;;5054778;28;20041;-73
2022/12/18 01:24:26;;;;;;;96.25;39.05;;;;;;;;;;5055343;28;20454;-74
2022/12/18 01:26:52;;;;;;;102.93;39.35;;;;;;;;;;5055226;28;20467;-73
2022/12/18 01:29:18;;;;;;;95.70;37.63;;;;;;;;;;5052766;28;20044;-74
2022/12/18 01:31:44;;;;;;;97.05;38.28;;;;;;;;;;5052588;28;20041;-73
2022/12/18 01:34:10;;;;;;;98.13;38.28;;;;;;;;;;5033565;28;20053;-74
2022/12/18 01:36:38;;;;;;;93.22;37.28;;;;;;;;;;5053756;28;20098;-73
2022/12/18 01:39:06;;;;;;;96.30;38.20;;;;;;;;;;5051068;28;20442;-73
2022/12/18 01:44:36;;;;;;;99.95;38.88;;;;;;;;;;5045574;28;20037;-74
2022/12/18 01:47:03;;;;;;;93.28;37.40;;;;;;;;;;5054512;28;20079;-73
2022/12/18 01:49:29;;;;;;;107.82;40.63;;;;;;;;;;5052145;28;20045;-73
2022/12/18 01:51:55;;;;;;;111.13;40.42;;;;;;;;;;5055660;28;20076;-73
2022/12/18 01:54:21;;;;;;;114.80;40.85;;;;;;;;;;5030750;28;20049;-73
2022/12/18 01:56:47;;;;;;;115.00;43.10;;;;;;;;;;5045666;28;20061;-73
2022/12/18 01:59:13;;;;;;;109.30;40.35;;;;;;;;;;5026949;28;20530;-73
2022/12/18 02:01:39;;;;;;;117.45;41.45;;;;;;;;;;5044417;28;20061;-73
2022/12/18 02:04:25;;;;;;;111.65;41.53;;;;;;;;;;5046307;28;20037;-72
2022/12/18 02:06:52;;;;;;;117.30;43.45;;;;;;;;;;5026259;28;20049;-73
2022/12/18 02:09:21;;;;;;;118.68;41.65;;;;;;;;;;5044017;28;20064;-74
2022/12/18 02:11:53;;;;;;;124.75;43.05;;;;;;;;;;5044026;28;20673;-73
2022/12/18 02:14:31;;;;;;;116.15;42.50;;;;;;;;;;5046918;28;20705;-73
2022/12/18 02:17:17;;;;;;;105.30;40.50;;;;;;;;;;5044500;28;20053;-73
2022/12/18 02:20:02;;;;;;;100.53;37.53;;;;;;;;;;5030066;28;20052;-73
2022/12/18 02:22:47;;;;;;;94.18;36.72;;;;;;;;;;5044467;28;20075;-73
2022/12/18 02:25:26;;;;;;;89.93;36.80;;;;;;;;;;5022059;28;20041;-73
2022/12/18 02:27:53;;;;;;;88.40;34.38;;;;;;;;;;5042644;28;20037;-73
2022/12/18 02:30:19;;;;;;;87.05;35.25;;;;;;;;;;5044354;28;20461;-73
2022/12/18 02:32:47;;;;;;;82.35;34.58;;;;;;;;;;5041308;28;20045;-73
2022/12/18 02:35:15;;;;;;;92.25;35.45;;;;;;;;;;5041629;28;20045;-73
2022/12/18 02:37:44;;;;;;;82.88;33.42;;;;;;;;;;5041503;28;20415;-73
2022/12/18 02:40:11;;;;;;;87.30;34.65;;;;;;;;;;5042026;28;20063;-73
2022/12/18 02:42:37;;;;;;;78.63;34.75;;;;;;;;;;5043636;28;20478;-72
2022/12/18 02:45:03;;;;;;;90.90;33.63;;;;;;;;;;5040496;28;20052;-73
2022/12/18 02:47:32;;;;;;;79.63;33.38;;;;;;;;;;5042192;28;20041;-73
2022/12/18 02:50:05;;;;;;;68.95;30.92;;;;;;;;;;5041180;28;20041;-73
2022/12/18 02:52:31;;;;;;;67.00;31.15;;;;;;;;;;5043984;28;20041;-73
2022/12/18 02:54:58;;;;;;;70.53;29.85;;;;;;;;;;5050267;28;20050;-73
2022/12/18 02:57:43;;;;;;;73.32;30.67;;;;;;;;;;5044847;28;20073;-73
2022/12/18 03:00:13;;;;;;;73.80;31.02;;;;;;;;;;5030269;28;20041;-73
2022/12/18 03:02:46;;;;;;;68.63;29.05;;;;;;;;;;5032474;28;20080;-73
2022/12/18 03:05:20;;;;;;;71.88;29.33;;;;;;;;;;5048309;28;20029;-73
2022/12/18 03:07:53;;;;;;;63.45;27.60;;;;;;;;;;5048243;28;20041;-73
2022/12/18 03:10:22;;;;;;;72.97;30.48;;;;;;;;;;5051034;28;20045;-73
2022/12/18 03:12:50;;;;;;;69.10;29.88;;;;;;;;;;5033645;28;20045;-73
2022/12/18 03:15:29;;;;;;;65.30;28.83;;;;;;;;;;5049182;28;20049;-73
2022/12/18 03:18:06;;;;;;;70.55;29.45;;;;;;;;;;5035563;28;20110;-73
2022/12/18 03:20:33;;;;;;;62.50;26.50;;;;;;;;;;5052328;28;20082;-73
2022/12/18 03:23:10;;;;;;;69.15;30.00;;;;;;;;;;5053436;28;20124;-73
2022/12/18 03:25:39;;;;;;;69.70;27.73;;;;;;;;;;5053124;28;20047;-73
2022/12/18 03:28:08;;;;;;;62.70;28.23;;;;;;;;;;5050755;28;20522;-73
2022/12/18 03:30:34;;;;;;;71.28;29.70;;;;;;;;;;5035371;28;20044;-73
2022/12/18 03:33:12;;;;;;;70.32;29.60;;;;;;;;;;5052320;28;20487;-73
2022/12/18 03:35:40;;;;;;;65.82;29.35;;;;;;;;;;5053277;28;20037;-73
2022/12/18 03:38:07;;;;;;;72.80;28.58;;;;;;;;;;5047582;28;20060;-72
2022/12/18 03:40:56;;;;;;;67.72;28.38;;;;;;;;;;5043541;28;20041;-72
2022/12/18 03:43:37;;;;;;;67.93;28.48;;;;;;;;;;5032429;28;20045;-72
2022/12/18 03:46:07;;;;;;;58.17;25.88;;;;;;;;;;5043140;28;20399;-73
2022/12/18 03:48:39;;;;;;;61.95;28.58;;;;;;;;;;5042149;28;20041;-73
2022/12/18 03:51:23;;;;;;;71.10;28.10;;;;;;;;;;5010107;28;20986;-73
2022/12/18 03:54:00;;;;;;;68.13;28.20;;;;;;;;;;5037818;28;20463;-73
2022/12/18 03:56:28;;;;;;;60.78;26.60;;;;;;;;;;5040924;28;20052;-73
2022/12/18 03:58:54;;;;;;;68.18;26.20;;;;;;;;;;5026418;28;20106;-73
2022/12/18 04:01:23;;;;;;;57.53;26.38;;;;;;;;;;5041967;28;20056;-73
2022/12/18 04:03:50;;;;;;;59.05;26.85;;;;;;;;;;5046121;28;20049;-73
2022/12/18 04:06:17;;;;;;;61.25;25.50;;;;;;;;;;5042895;28;20044;-73
2022/12/18 04:08:43;;;;;;;56.47;26.55;;;;;;;;;;5045864;28;20041;-73
2022/12/18 04:11:09;;;;;;;61.22;27.30;;;;;;;;;;5049524;28;20041;-73
2022/12/18 04:13:36;;;;;;;56.10;25.45;;;;;;;;;;5047502;28;20460;-73
2022/12/18 04:16:02;;;;;;;59.38;25.90;;;;;;;;;;5050026;28;20049;-73
2022/12/18 04:18:28;;;;;;;59.83;26.65;;;;;;;;;;5028365;28;20033;-73
2022/12/18 04:20:55;;;;;;;60.33;24.95;;;;;;;;;;5023292;28;20526;-73
2022/12/18 04:23:21;;;;;;;54.90;26.02;;;;;;;;;;5031111;28;20507;-73
2022/12/18 04:25:47;;;;;;;55.47;24.55;;;;;;;;;;5031927;28;20510;-73
2022/12/18 04:28:13;;;;;;;59.55;26.98;;;;;;;;;;5051514;28;20041;-73
2022/12/18 04:30:40;;;;;;;49.47;23.58;;;;;;;;;;5052066;28;20044;-73
2022/12/18 04:33:09;;;;;;;53.70;24.88;;;;;;;;;;5044267;28;20487;-73
2022/12/18 04:35:36;;;;;;;54.88;24.92;;;;;;;;;;5047557;28;20103;-73
2022/12/18 04:38:02;;;;;;;51.38;24.40;;;;;;;;;;5050562;28;20048;-73
2022/12/18 04:40:28;;;;;;;49.65;23.27;;;;;;;;;;5051341;28;20045;-73
2022/12/18 04:42:54;;;;;;;54.28;24.13;;;;;;;;;;5049818;28;20053;-73
2022/12/18 04:45:20;;;;;;;54.65;24.90;;;;;;;;;;5051046;28;20064;-73
2022/12/18 04:47:46;;;;;;;55.03;24.35;;;;;;;;;;5033896;28;20262;-73
2022/12/18 04:50:12;;;;;;;50.60;24.08;;;;;;;;;;5032803;28;20045;-73
2022/12/18 04:52:38;;;;;;;49.45;22.95;;;;;;;;;;5050553;28;20041;-73
2022/12/18 04:55:04;;;;;;;53.70;24.83;;;;;;;;;;5049650;28;20487;-73
2022/12/18 04:57:30;;;;;;;51.92;24.48;;;;;;;;;;5048893;28;20037;-73
2022/12/18 04:59:56;;;;;;;46.75;21.98;;;;;;;;;;5050844;28;20045;-73
2022/12/18 05:02:22;;;;;;;54.63;24.45;;;;;;;;;;5034257;28;20060;-73
2022/12/18 05:04:48;;;;;;;50.20;23.75;;;;;;;;;;5050230;28;20103;-73
2022/12/18 05:07:15;;;;;;;48.35;23.50;;;;;;;;;;5051818;28;20062;-73
2022/12/18 05:09:41;;;;;;;51.05;23.10;;;;;;;;;;5051735;28;20045;-73
2022/12/18 05:12:07;;;;;;;54.38;24.40;;;;;;;;;;5051127;28;20056;-73
2022/12/18 05:14:33;;;;;;;54.22;24.27;;;;;;;;;;5053581;28;20041;-73
2022/12/18 05:16:59;;;;;;;47.70;24.08;;;;;;;;;;5055648;28;20052;-73
2022/12/18 05:19:25;;;;;;;50.58;23.45;;;;;;;;;;5053655;28;20057;-73
2022/12/18 05:21:51;;;;;;;48.58;23.95;;;;;;;;;;5036335;28;20041;-73
2022/12/18 05:24:17;;;;;;;48.00;22.73;;;;;;;;;;5036849;28;20060;-73
2022/12/18 05:26:43;;;;;;;49.58;23.73;;;;;;;;;;5037098;28;20052;-73
2022/12/18 05:29:12;;;;;;;48.70;23.65;;;;;;;;;;5054522;28;20056;-73
2022/12/18 05:31:38;;;;;;;51.67;24.90;;;;;;;;;;5054149;28;20049;-73
2022/12/18 05:34:04;;;;;;;46.95;23.83;;;;;;;;;;5055324;28;20080;-73
2022/12/18 05:36:30;;;;;;;47.97;23.35;;;;;;;;;;5051730;28;20052;-73
2022/12/18 05:38:56;;;;;;;49.67;24.45;;;;;;;;;;5045729;28;20094;-73
2022/12/18 05:41:22;;;;;;;46.38;23.50;;;;;;;;;;5044174;28;20042;-73
2022/12/18 05:43:48;;;;;;;47.15;23.55;;;;;;;;;;5046142;28;20044;-73
2022/12/18 05:46:17;;;;;;;49.88;23.98;;;;;;;;;;5045184;28;20037;-73
2022/12/18 05:48:44;;;;;;;47.13;23.13;;;;;;;;;;5043623;28;20057;-73
2022/12/18 05:51:14;;;;;;;49.53;25.30;;;;;;;;;;5042606;28;20053;-73
2022/12/18 05:53:41;;;;;;;45.92;22.55;;;;;;;;;;5045797;28;20052;-73
2022/12/18 05:56:08;;;;;;;43.85;22.17;;;;;;;;;;5027676;28;20067;-73
2022/12/18 05:58:35;;;;;;;45.95;22.45;;;;;;;;;;5045163;28;20485;-73
2022/12/18 06:01:27;;;;;;;48.55;23.30;;;;;;;;;;5029301;28;20051;-73
2022/12/18 06:03:53;;;;;;;47.58;22.75;;;;;;;;;;5042555;28;20090;-73
2022/12/18 06:06:23;;;;;;;46.25;21.95;;;;;;;;;;5044633;28;20395;-73
2022/12/18 06:08:50;;;;;;;45.08;22.63;;;;;;;;;;5024996;28;20057;-73
2022/12/18 06:11:18;;;;;;;49.67;23.92;;;;;;;;;;5045498;28;20041;-73
2022/12/18 06:13:44;;;;;;;51.10;25.25;;;;;;;;;;5045549;28;20127;-73
2022/12/18 06:16:10;;;;;;;52.15;25.85;;;;;;;;;;5024977;28;20044;-73
2022/12/18 06:18:36;;;;;;;52.40;25.77;;;;;;;;;;5045765;28;20048;-73
2022/12/18 06:21:02;;;;;;;53.97;26.50;;;;;;;;;;5023829;28;20126;-73
2022/12/18 06:23:28;;;;;;;53.25;25.73;;;;;;;;;;5043630;28;20041;-73
2022/12/18 06:25:54;;;;;;;49.60;25.77;;;;;;;;;;5045452;28;20776;-73
2022/12/18 06:28:20;;;;;;;50.55;26.10;;;;;;;;;;5044162;28;20045;-73
2022/12/18 06:30:48;;;;;;;49.25;25.60;;;;;;;;;;5043176;28;21654;-73
2022/12/18 06:33:14;;;;;;;47.70;23.67;;;;;;;;;;5045526;28;20056;-73
2022/12/18 06:35:41;;;;;;;49.88;25.50;;;;;;;;;;5023888;28;20049;-73
2022/12/18 06:38:07;;;;;;;47.28;24.88;;;;;;;;;;5046153;28;20499;-73
2022/12/18 06:40:33;;;;;;;48.40;25.25;;;;;;;;;;5023948;28;20048;-73
2022/12/18 06:42:59;;;;;;;49.28;24.85;;;;;;;;;;5044474;28;20051;-73
2022/12/18 06:45:25;;;;;;;46.75;23.13;;;;;;;;;;5038156;28;20272;-73
2022/12/18 06:47:51;;;;;;;42.63;23.08;;;;;;;;;;5044045;28;20060;-74
2022/12/18 06:50:17;;;;;;;44.83;22.85;;;;;;;;;;5044375;28;20414;-73
2022/12/18 06:52:43;;;;;;;46.97;23.90;;;;;;;;;;5046287;28;20398;-73
2022/12/18 06:55:10;;;;;;;48.75;24.55;;;;;;;;;;5045591;28;20045;-73
2022/12/18 06:57:36;;;;;;;45.53;22.30;;;;;;;;;;5044371;28;20052;-73
2022/12/18 07:00:03;;;;;;;46.70;24.20;;;;;;;;;;5042598;28;20044;-73
2022/12/18 07:02:29;;;;;;;45.63;23.05;;;;;;;;;;5026370;28;20457;-73
2022/12/18 07:04:55;;;;;;;44.50;22.67;;;;;;;;;;5035797;28;20057;-73
2022/12/18 07:07:21;;;;;;;42.45;20.65;;;;;;;;;;5053536;28;20045;-73
2022/12/18 07:09:49;;;;;;;43.55;22.67;;;;;;;;;;5052689;28;20406;-73
2022/12/18 07:12:15;;;;;;;40.20;21.90;;;;;;;;;;5052243;28;20076;-73
2022/12/18 07:14:41;;;;;;;37.88;19.92;;;;;;;;;;5052830;28;20048;-73
2022/12/18 07:17:07;;;;;;;41.70;20.35;;;;;;;;;;5053852;28;20041;-73
2022/12/18 07:19:33;;;;;;;41.90;20.35;;;;;;;;;;5034939;28;20179;-73
2022/12/18 07:21:59;;;;;;;37.05;20.15;;;;;;;;;;5051011;28;20114;-73
2022/12/18 07:24:25;;;;;;;36.75;18.92;;;;;;;;;;5052427;28;20064;-73
2022/12/18 07:26:51;;;;;;;38.20;19.40;;;;;;;;;;5049862;28;20045;-73
2022/12/18 07:29:17;;;;;;;39.53;20.20;;;;;;;;;;5048746;28;20068;-73
2022/12/18 07:31:43;;;;;;;38.35;20.13;;;;;;;;;;5048673;28;20048;-73
2022/12/18 07:34:13;;;;;;;44.55;20.75;;;;;;;;;;5050786;28;20060;-73
2022/12/18 07:36:39;;;;;;;39.00;19.48;;;;;;;;;;5045354;28;20124;-73
2022/12/18 07:39:05;;;;;;;37.55;19.52;;;;;;;;;;5026320;28;20045;-73
2022/12/18 07:41:31;;;;;;;38.80;18.83;;;;;;;;;;5045529;28;20049;-73
2022/12/18 07:43:57;;;;;;;40.78;17.95;;;;;;;;;;5047131;28;20494;-73
2022/12/18 07:46:24;;;;;;;37.00;18.10;;;;;;;;;;5051427;28;20384;-73
2022/12/18 07:48:50;;;;;;;37.97;18.02;;;;;;;;;;5051311;28;20041;-73
2022/12/18 07:51:16;;;;;;;33.95;17.67;;;;;;;;;;5051504;28;20415;-73
2022/12/18 07:53:42;;;;;;;35.08;17.50;;;;;;;;;;5034564;28;20096;-73
2022/12/18 07:56:10;;;;;;;35.15;18.10;;;;;;;;;;5045747;28;20056;-73
2022/12/18 07:58:36;;;;;;;32.40;17.17;;;;;;;;;;5047727;28;20106;-73
2022/12/18 08:01:06;;;;;;;34.33;17.42;;;;;;;;;;5018700;28;20188;-73
2022/12/18 08:03:32;;;;;;;31.88;17.23;;;;;;;;;;5024892;28;20515;-74
2022/12/18 08:05:59;;;;;;;34.47;18.25;;;;;;;;;;5028527;28;20054;-73
2022/12/18 08:08:26;;;;;;;33.28;17.20;;;;;;;;;;5021489;28;20044;-73
2022/12/18 08:10:52;;;;;;;35.63;16.50;;;;;;;;;;5028641;28;20052;-74
2022/12/18 08:13:18;;;;;;;30.55;16.48;;;;;;;;;;5031405;28;20057;-73
2022/12/18 08:15:44;;;;;;;32.67;16.15;;;;;;;;;;5025671;28;20468;-73
2022/12/18 08:18:10;;;;;;;28.92;15.32;;;;;;;;;;5026052;28;20407;-74
2022/12/18 08:20:36;;;;;;;29.52;16.00;;;;;;;;;;5029259;28;20057;-74
2022/12/18 08:23:02;;;;;;;29.30;15.70;;;;;;;;;;5029544;28;20052;-73
2022/12/18 08:25:28;;;;;;;27.80;14.05;;;;;;;;;;5029801;28;20049;-73
2022/12/18 08:27:56;;;;;;;30.38;14.13;;;;;;;;;;5013042;28;20103;-73
2022/12/18 08:30:22;;;;;;;31.38;14.82;;;;;;;;;;5027259;28;20100;-74
2022/12/18 08:32:52;;;;;;;26.90;13.05;;;;;;;;;;5026008;28;20408;-73
2022/12/18 08:35:18;;;;;;;26.85;14.93;;;;;;;;;;5027901;28;20088;-73
2022/12/18 08:37:44;;;;;;;28.27;15.25;;;;;;;;;;5030314;28;20061;-73
2022/12/18 08:40:10;;;;;;;25.48;13.93;;;;;;;;;;5027325;28;20099;-74
2022/12/18 08:45:21;;;;;;;24.90;14.63;;;;;;;;;;5030107;28;20380;-74
2022/12/18 08:47:47;;;;;;;27.98;14.82;;;;;;;;;;5031727;28;20076;-73
2022/12/18 08:50:14;;;;;;;28.52;14.23;;;;;;;;;;5035492;28;20072;-73
2022/12/18 08:52:40;;;;;;;28.25;14.68;;;;;;;;;;5035375;28;20041;-74
2022/12/18 08:55:06;;;;;;;23.23;13.88;;;;;;;;;;5015558;28;20124;-73
2022/12/18 08:57:33;;;;;;;26.65;14.30;;;;;;;;;;5035330;28;20045;-73
2022/12/18 08:59:59;;;;;;;24.73;13.95;;;;;;;;;;5023993;28;20056;-73
2022/12/18 09:02:25;;;;;;;23.33;13.38;;;;;;;;;;5032775;28;20091;-74
2022/12/18 09:04:51;;;;;;;25.85;14.00;;;;;;;;;;5033602;28;20045;-73
2022/12/18 09:07:17;;;;;;;25.15;13.35;;;;;;;;;;5031575;28;20061;-73
2022/12/18 09:09:43;;;;;;;22.02;12.48;;;;;;;;;;5031811;28;20056;-73
2022/12/18 09:12:09;;;;;;;21.15;11.45;;;;;;;;;;5034604;28;20080;-74
2022/12/18 09:14:36;;;;;;;23.50;12.73;;;;;;;;;;5034314;28;20049;-74
2022/12/18 09:17:02;;;;;;;23.33;12.82;;;;;;;;;;5034506;28;20049;-74
2022/12/18 09:19:28;;;;;;;22.40;12.63;;;;;;;;;;5035072;28;20120;-74
2022/12/18 09:21:54;;;;;;;20.23;11.48;;;;;;;;;;5034310;28;20049;-73
2022/12/18 09:24:20;;;;;;;23.08;12.15;;;;;;;;;;5033000;28;20124;-74
2022/12/18 09:26:46;;;;;;;20.92;12.70;;;;;;;;;;5034123;28;20458;-74
2022/12/18 09:29:12;;;;;;;20.60;11.57;;;;;;;;;;5032911;28;20045;-74
2022/12/18 09:31:39;;;;;;;20.40;11.50;;;;;;;;;;5034357;28;20167;-74
2022/12/18 09:34:05;;;;;;;19.95;10.18;;;;;;;;;;5027817;28;20463;-73
2022/12/18 09:36:31;;;;;;;20.50;11.90;;;;;;;;;;5034215;28;20042;-73
2022/12/18 09:38:57;;;;;;;20.25;11.13;;;;;;;;;;5031689;28;20045;-74
2022/12/18 09:41:26;;;;;;;20.23;11.20;;;;;;;;;;5031947;28;20045;-74
2022/12/18 09:43:54;;;;;;;19.70;11.13;;;;;;;;;;5032690;28;20365;-74
2022/12/18 09:46:28;;;;;;;19.75;11.15;;;;;;;;;;5032521;28;20052;-74
2022/12/18 09:48:57;;;;;;;21.25;10.48;;;;;;;;;;5031688;28;20396;-73
2022/12/18 09:51:43;;;;;;;17.58;10.57;;;;;;;;;;5033335;28;20037;-73
2022/12/18 09:54:14;;;;;;;18.27;10.32;;;;;;;;;;5034177;28;20067;-74
2022/12/18 09:56:43;;;;;;;17.55;10.13;;;;;;;;;;5033926;28;20057;-74
2022/12/18 09:59:18;;;;;;;17.58;10.20;;;;;;;;;;5033073;28;20056;-74
2022/12/18 10:01:44;;;;;;;16.75;9.82;;;;;;;;;;5044552;28;20049;-74
2022/12/18 10:04:11;;;;;;;18.75;9.80;;;;;;;;;;5053705;28;20048;-74
2022/12/18 10:06:42;;;;;;;16.00;9.48;;;;;;;;;;5053206;28;20128;-74
2022/12/18 10:09:16;;;;;;;16.05;8.88;;;;;;;;;;5053891;28;20060;-74
2022/12/18 10:12:03;;;;;;;16.63;8.88;;;;;;;;;;5053808;28;20487;-72
2022/12/18 10:14:51;;;;;;;15.98;8.90;;;;;;;;;;5050788;28;20083;-73
2022/12/18 10:17:26;;;;;;;14.88;8.82;;;;;;;;;;5050779;28;20053;-74
2022/12/18 10:19:56;;;;;;;13.95;8.35;;;;;;;;;;5041516;28;20120;-74
2022/12/18 10:22:28;;;;;;;14.18;7.75;;;;;;;;;;5050103;28;20049;-74
2022/12/18 10:24:58;;;;;;;14.88;8.05;;;;;;;;;;5049976;28;20037;-73
2022/12/18 10:27:26;;;;;;;13.60;8.15;;;;;;;;;;5051836;28;20045;-74
2022/12/18 10:29:52;;;;;;;14.98;8.57;;;;;;;;;;5045753;28;20124;-73
2022/12/18 10:32:21;;;;;;;15.85;8.18;;;;;;;;;;5046487;28;20056;-74
2022/12/18 10:34:48;;;;;;;14.75;9.05;;;;;;;;;;5051940;28;20098;-74
2022/12/18 10:37:21;;;;;;;11.65;6.68;;;;;;;;;;5052368;28;20084;-74
2022/12/18 10:40:05;;;;;;;13.65;8.13;;;;;;;;;;5052205;28;20051;-74
2022/12/18 10:42:31;;;;;;;13.45;7.78;;;;;;;;;;5052735;28;20094;-74
2022/12/18 10:45:02;;;;;;;16.13;9.07;;;;;;;;;;5050602;28;20087;-73
2022/12/18 10:47:28;;;;;;;19.20;8.80;;;;;;;;;;5018969;28;20049;-74
2022/12/18 10:49:55;;;;;;;16.63;8.25;;;;;;;;;;5053366;28;20041;-74
2022/12/18 10:52:22;;;;;;;13.63;8.48;;;;;;;;;;5047935;28;20041;-74
2022/12/18 10:54:49;;;;;;;18.30;9.30;;;;;;;;;;5049115;28;20092;-74
2022/12/18 10:57:30;;;;;;;14.10;7.88;;;;;;;;;;5053393;28;20091;-74
2022/12/18 10:59:58;;;;;;;15.63;8.00;;;;;;;;;;5053119;28;20052;-74
2022/12/18 11:02:42;;;;;;;13.70;8.27;;;;;;;;;;5052192;28;20049;-74
2022/12/18 11:05:37;;;;;;;16.10;8.10;;;;;;;;;;5050595;28;20509;-74
2022/12/18 11:08:04;;;;;;;13.30;7.45;;;;;;;;;;5024073;28;20072;-74
2022/12/18 11:10:36;;;;;;;18.02;8.23;;;;;;;;;;5039265;28;20059;-74
2022/12/18 11:13:11;;;;;;;14.85;7.30;;;;;;;;;;5051507;28;20099;-74
2022/12/18 11:15:37;;;;;;;16.80;7.93;;;;;;;;;;5050957;28;20115;-74
2022/12/18 11:18:04;;;;;;;15.55;8.38;;;;;;;;;;5052795;28;20123;-72
2022/12/18 11:20:35;;;;;;;12.10;7.35;;;;;;;;;;5050842;28;20518;-72
2022/12/18 11:23:05;;;;;;;14.43;6.72;;;;;;;;;;5041914;28;20076;-72
2022/12/18 11:25:32;;;;;;;13.90;7.90;;;;;;;;;;5051789;28;20052;-72
2022/12/18 11:28:00;;;;;;;14.38;7.45;;;;;;;;;;5033494;28;20524;-72
2022/12/18 11:30:36;;;;;;;12.48;6.93;;;;;;;;;;5051862;28;20782;-73
2022/12/18 11:33:04;;;;;;;14.38;6.95;;;;;;;;;;5032207;28;20561;-73
2022/12/18 11:35:37;;;;;;;14.23;7.13;;;;;;;;;;5058318;28;20561;-74
2022/12/18 11:38:06;;;;;;;12.25;7.10;;;;;;;;;;5055066;28;20494;-73
2022/12/18 11:40:37;;;;;;;12.98;6.47;;;;;;;;;;5051744;28;20049;-73
2022/12/18 11:43:12;;;;;;;14.93;7.65;;;;;;;;;;5050443;28;20040;-73
2022/12/18 11:45:41;;;;;;;13.75;7.07;;;;;;;;;;5052205;28;20048;-74
2022/12/18 11:48:13;;;;;;;12.75;6.97;;;;;;;;;;5052227;28;20037;-74
2022/12/18 11:50:51;;;;;;;12.45;6.88;;;;;;;;;;5052535;28;20052;-74
2022/12/18 11:53:17;;;;;;;14.27;7.28;;;;;;;;;;5052078;28;20452;-73
2022/12/18 11:56:02;;;;;;;13.82;7.03;;;;;;;;;;5050923;28;20095;-74
2022/12/18 11:58:41;;;;;;;13.23;7.15;;;;;;;;;;5033608;28;20049;-73
2022/12/18 12:01:07;;;;;;;13.30;6.97;;;;;;;;;;5034782;28;20049;-74
2022/12/18 12:03:39;;;;;;;15.80;7.28;;;;;;;;;;5048944;28;20514;-73
2022/12/18 12:06:14;;;;;;;18.13;8.25;;;;;;;;;;5049782;28;20044;-73
2022/12/18 12:08:43;;;;;;;12.82;7.22;;;;;;;;;;5047233;28;20172;-74
2022/12/18 12:11:26;;;;;;;13.50;7.13;;;;;;;;;;5050487;28;20056;-73
2022/12/18 12:14:10;;;;;;;16.73;7.38;;;;;;;;;;5051824;28;20075;-74
2022/12/18 12:16:36;;;;;;;13.68;7.40;;;;;;;;;;5034203;28;20045;-74
2022/12/18 12:19:02;;;;;;;11.00;6.72;;;;;;;;;;5051130;28;20048;-74
2022/12/18 12:21:49;;;;;;;11.30;6.70;;;;;;;;;;5040796;28;20057;-74
2022/12/18 12:24:21;;;;;;;12.25;6.60;;;;;;;;;;5050282;28;20053;-73
2022/12/18 12:26:47;;;;;;;13.40;7.60;;;;;;;;;;5050123;28;20120;-74
2022/12/18 12:29:26;;;;;;;13.30;7.47;;;;;;;;;;5055225;28;20045;-73
2022/12/18 12:31:55;;;;;;;13.23;7.15;;;;;;;;;;5037982;28;20048;-73
2022/12/18 12:34:21;;;;;;;11.88;6.65;;;;;;;;;;5017979;28;20139;-73
2022/12/18 12:36:47;;;;;;;13.45;7.78;;;;;;;;;;5046108;28;20045;-74
2022/12/18 12:39:18;;;;;;;11.55;6.93;;;;;;;;;;5055638;28;20139;-74
2022/12/18 12:44:33;;;;;;;15.13;8.05;;;;;;;;;;5053355;28;20073;-74
2022/12/18 12:47:01;;;;;;;13.10;7.50;;;;;;;;;;5055379;28;20403;-74
2022/12/18 12:49:29;;;;;;;13.93;7.35;;;;;;;;;;5055216;28;20659;-74
2022/12/18 12:51:59;;;;;;;11.95;6.63;;;;;;;;;;5031896;28;20041;-74
2022/12/18 12:54:27;;;;;;;12.27;7.28;;;;;;;;;;5054614;28;20490;-74
2022/12/18 12:57:05;;;;;;;12.85;7.53;;;;;;;;;;5055365;28;20056;-74
2022/12/18 12:59:50;;;;;;;12.75;7.75;;;;;;;;;;5049778;28;20329;-74
2022/12/18 13:02:25;;;;;;;13.10;7.45;;;;;;;;;;5054157;28;20063;-74
2022/12/18 13:05:02;;;;;;;14.98;7.78;;;;;;;;;;5054179;28;20080;-73
2022/12/18 13:07:33;;;;;;;13.20;7.75;;;;;;;;;;5055426;28;20053;-74
2022/12/18 13:10:23;;;;;;;14.63;8.00;;;;;;;;;;5055135;28;20048;-74
2022/12/18 13:13:00;;;;;;;14.00;8.60;;;;;;;;;;5054167;28;20041;-73
2022/12/18 13:15:32;;;;;;;13.82;8.10;;;;;;;;;;5053930;28;20056;-74
2022/12/18 13:18:10;;;;;;;14.48;8.98;;;;;;;;;;5052695;28;20041;-74
2022/12/18 13:20:38;;;;;;;14.95;8.85;;;;;;;;;;5054512;28;20497;-73
2022/12/18 13:23:19;;;;;;;13.10;8.38;;;;;;;;;;5055149;28;20106;-74
2022/12/18 13:25:46;;;;;;;14.63;9.00;;;;;;;;;;5055095;28;20053;-74
2022/12/18 13:28:16;;;;;;;13.10;8.45;;;;;;;;;;5052153;28;20045;-74
2022/12/18 13:30:48;;;;;;;14.30;8.35;;;;;;;;;;5033814;28;20159;-74
2022/12/18 13:33:14;;;;;;;14.63;8.45;;;;;;;;;;5054326;28;20065;-74
2022/12/18 13:35:42;;;;;;;14.95;9.05;;;;;;;;;;5036122;28;20053;-74
2022/12/18 13:38:22;;;;;;;16.15;9.23;;;;;;;;;;5054701;28;20132;-74
2022/12/18 13:40:48;;;;;;;14.63;8.90;;;;;;;;;;5053630;28;20052;-74
2022/12/18 13:43:20;;;;;;;14.88;8.75;;;;;;;;;;5036561;28;20049;-74
2022/12/18 13:46:06;;;;;;;15.25;9.23;;;;;;;;;;5046839;28;20040;-74
2022/12/18 13:48:33;;;;;;;14.75;9.38;;;;;;;;;;5045699;28;20049;-74
2022/12/18 13:51:03;;;;;;;16.15;9.63;;;;;;;;;;5043339;28;20045;-74
2022/12/18 13:53:49;;;;;;;15.60;9.95;;;;;;;;;;5047319;28;20045;-74
2022/12/18 13:56:21;;;;;;;17.00;8.93;;;;;;;;;;5033903;28;20075;-74
2022/12/18 13:59:03;;;;;;;14.65;8.90;;;;;;;;;;5050390;28;20088;-73
2022/12/18 14:01:29;;;;;;;15.93;8.82;;;;;;;;;;5033321;28;20053;-74
2022/12/18 14:04:14;;;;;;;14.80;9.07;;;;;;;;;;5050083;28;20053;-73
2022/12/18 14:06:42;;;;;;;17.75;11.00;;;;;;;;;;5035949;28;20064;-74
2022/12/18 14:09:11;;;;;;;18.30;10.85;;;;;;;;;;5051221;28;20045;-74
2022/12/18 14:11:37;;;;;;;15.60;9.57;;;;;;;;;;5053958;28;20044;-74
2022/12/18 14:14:07;;;;;;;16.42;10.52;;;;;;;;;;5053968;28;20044;-74
2022/12/18 14:16:33;;;;;;;15.88;10.02;;;;;;;;;;5053816;28;20132;-73
2022/12/18 14:18:59;;;;;;;17.90;10.00;;;;;;;;;;5053676;28;20115;-73
2022/12/18 14:21:26;;;;;;;17.40;10.00;;;;;;;;;;5053877;28;20070;-74
2022/12/18 14:24:11;;;;;;;16.10;9.65;;;;;;;;;;5053191;28;20049;-74
2022/12/18 14:26:38;;;;;;;17.42;10.45;;;;;;;;;;5053152;28;20099;-74
2022/12/18 14:29:23;;;;;;;17.02;10.35;;;;;;;;;;5053737;28;20049;-74
2022/12/18 14:32:08;;;;;;;17.15;10.77;;;;;;;;;;5052931;28;20045;-74
2022/12/18 14:34:34;;;;;;;15.93;9.93;;;;;;;;;;5035500;28;20127;-74
2022/12/18 14:37:00;;;;;;;14.57;9.38;;;;;;;;;;5035212;28;20045;-74
2022/12/18 14:39:26;;;;;;;16.60;11.00;;;;;;;;;;5053423;28;20053;-73